Time;durP1;ratioP1;P1;durP2;ratioP2;P2;SDS_P1;SDS_P2;PMS_P1;PMS_P2;Temp;Humidity;BMP_temperature;BMP_pressure;BME280_temperature;BME280_humidity;BME280_pressure;Samples;Min_cycle;Max_cycle;Signal;HPM_P1;HPM_P2
2022/01/03 00:00:58;;;;;;;6.78;2.75;;;;;;;;;;5058177;28;20107;-74
2022/01/03 00:03:25;;;;;;;5.30;2.95;;;;;;;;;;5061234;28;20106;-74
2022/01/03 00:05:51;;;;;;;6.22;2.55;;;;;;;;;;5064979;28;20029;-74
2022/01/03 00:08:17;;;;;;;5.97;2.03;;;;;;;;;;5054920;28;20142;-74
2022/01/03 00:10:43;;;;;;;3.25;2.30;;;;;;;;;;5049431;28;20052;-74
2022/01/03 00:13:09;;;;;;;9.73;3.65;;;;;;;;;;5040325;28;20074;-73
2022/01/03 00:15:35;;;;;;;3.20;1.70;;;;;;;;;;5060208;28;20021;-74
2022/01/03 00:18:01;;;;;;;4.15;2.25;;;;;;;;;;5065871;28;20044;-75
2022/01/03 00:20:28;;;;;;;4.25;2.38;;;;;;;;;;5039290;28;20126;-73
2022/01/03 00:22:56;;;;;;;4.85;2.28;;;;;;;;;;5056039;28;20024;-73
2022/01/03 00:25:23;;;;;;;6.82;2.58;;;;;;;;;;5061652;28;20021;-73
2022/01/03 00:27:53;;;;;;;5.30;2.83;;;;;;;;;;5066464;28;20032;-74
2022/01/03 00:30:21;;;;;;;5.30;1.85;;;;;;;;;;5053332;28;20036;-73
2022/01/03 00:32:48;;;;;;;7.20;3.08;;;;;;;;;;5065463;28;20371;-75
2022/01/03 00:35:15;;;;;;;7.63;3.53;;;;;;;;;;5058579;28;20032;-74
2022/01/03 00:37:44;;;;;;;7.75;3.08;;;;;;;;;;5058869;28;20113;-73
2022/01/03 00:40:10;;;;;;;6.07;2.55;;;;;;;;;;5049146;28;20115;-72
2022/01/03 00:42:36;;;;;;;5.07;2.80;;;;;;;;;;5054202;28;20025;-74
2022/01/03 00:45:03;;;;;;;6.07;2.63;;;;;;;;;;5063486;28;20029;-73
2022/01/03 00:47:32;;;;;;;5.07;2.35;;;;;;;;;;5061029;28;20031;-74
2022/01/03 00:49:59;;;;;;;5.65;2.88;;;;;;;;;;5056232;28;20086;-73
2022/01/03 00:52:25;;;;;;;2.50;1.65;;;;;;;;;;5067059;28;20021;-73
2022/01/03 00:54:51;;;;;;;7.05;1.70;;;;;;;;;;5055249;28;20081;-74
2022/01/03 00:57:23;;;;;;;4.93;2.22;;;;;;;;;;5044053;28;20056;-74
2022/01/03 00:59:56;;;;;;;6.38;2.47;;;;;;;;;;5045496;28;20033;-74
2022/01/03 01:02:23;;;;;;;7.35;2.72;;;;;;;;;;5054104;28;20020;-75
2022/01/03 01:04:50;;;;;;;5.30;2.25;;;;;;;;;;5065304;28;20047;-74
2022/01/03 01:07:17;;;;;;;4.60;2.42;;;;;;;;;;5041371;28;20020;-74
2022/01/03 01:09:48;;;;;;;3.03;1.20;;;;;;;;;;5058256;28;20021;-73
2022/01/03 01:12:15;;;;;;;4.78;2.40;;;;;;;;;;5067038;28;20101;-73
2022/01/03 01:14:41;;;;;;;4.00;2.03;;;;;;;;;;5053394;28;20458;-73
2022/01/03 01:17:07;;;;;;;7.32;2.47;;;;;;;;;;5045147;28;20075;-74
2022/01/03 01:19:33;;;;;;;5.18;2.60;;;;;;;;;;5061159;28;20482;-75
2022/01/03 01:21:59;;;;;;;9.52;2.20;;;;;;;;;;5065659;28;20031;-74
2022/01/03 01:24:31;;;;;;;6.20;2.40;;;;;;;;;;5052872;28;20021;-75
2022/01/03 01:29:42;;;;;;;4.03;2.10;;;;;;;;;;5062694;28;20055;-73
2022/01/03 01:32:09;;;;;;;7.05;2.75;;;;;;;;;;5054502;28;20076;-74
2022/01/03 01:34:37;;;;;;;5.93;2.22;;;;;;;;;;5065990;28;20028;-74
2022/01/03 01:37:03;;;;;;;3.20;1.77;;;;;;;;;;5057498;28;20042;-74
2022/01/03 01:39:30;;;;;;;5.38;2.53;;;;;;;;;;5060154;28;20021;-74
2022/01/03 01:41:57;;;;;;;3.67;1.63;;;;;;;;;;5064482;28;20086;-75
2022/01/03 01:44:24;;;;;;;4.05;1.77;;;;;;;;;;5052822;28;20040;-74
2022/01/03 01:46:55;;;;;;;4.88;1.20;;;;;;;;;;5047512;28;20017;-72
2022/01/03 01:49:23;;;;;;;4.72;1.65;;;;;;;;;;5032921;28;20021;-72
2022/01/03 01:51:56;;;;;;;5.65;2.42;;;;;;;;;;5050607;28;20475;-74
2022/01/03 01:54:27;;;;;;;4.72;1.48;;;;;;;;;;5066683;28;20052;-74
2022/01/03 01:56:59;;;;;;;2.15;1.13;;;;;;;;;;5050533;28;20045;-74
2022/01/03 01:59:40;;;;;;;4.10;1.10;;;;;;;;;;5060291;28;20095;-74
2022/01/03 02:02:07;;;;;;;3.55;1.88;;;;;;;;;;5055450;28;20021;-74
2022/01/03 02:04:34;;;;;;;8.27;1.95;;;;;;;;;;5048889;28;20375;-74
2022/01/03 02:07:12;;;;;;;2.88;0.93;;;;;;;;;;5050985;28;20471;-75
2022/01/03 02:09:58;;;;;;;2.72;1.10;;;;;;;;;;5062494;28;20020;-75
2022/01/03 02:12:26;;;;;;;1.40;0.82;;;;;;;;;;5035368;28;20055;-72
2022/01/03 02:14:57;;;;;;;3.00;1.20;;;;;;;;;;5047981;28;20033;-74
2022/01/03 02:17:23;;;;;;;3.47;1.10;;;;;;;;;;5051539;28;20021;-76
2022/01/03 02:20:11;;;;;;;3.60;0.80;;;;;;;;;;5067195;28;20324;-74
2022/01/03 02:22:38;;;;;;;1.67;0.65;;;;;;;;;;5058160;28;20108;-73
2022/01/03 02:25:05;;;;;;;3.97;1.40;;;;;;;;;;5073218;28;20549;-74
2022/01/03 02:27:32;;;;;;;3.55;0.98;;;;;;;;;;5073926;28;20016;-75
2022/01/03 02:29:58;;;;;;;1.65;0.35;;;;;;;;;;5059175;28;20040;-74
2022/01/03 02:32:24;;;;;;;1.85;0.90;;;;;;;;;;5051801;28;21767;-74
2022/01/03 02:34:50;;;;;;;1.88;0.90;;;;;;;;;;5040266;28;20174;-73
2022/01/03 02:37:16;;;;;;;5.57;1.23;;;;;;;;;;5064747;28;20475;-74
2022/01/03 02:39:43;;;;;;;0.50;0.50;;;;;;;;;;5065498;28;20389;-74
2022/01/03 02:42:09;;;;;;;2.38;0.57;;;;;;;;;;5057145;28;20110;-74
2022/01/03 02:44:35;;;;;;;2.45;1.17;;;;;;;;;;5069102;28;20186;-74
2022/01/03 02:47:01;;;;;;;2.03;0.65;;;;;;;;;;5059530;28;20032;-74
2022/01/03 02:49:27;;;;;;;3.10;1.15;;;;;;;;;;5063289;28;20072;-74
2022/01/03 02:51:53;;;;;;;1.27;0.47;;;;;;;;;;5048595;28;20024;-74
2022/01/03 02:54:19;;;;;;;2.58;1.00;;;;;;;;;;5055594;28;20025;-74
2022/01/03 02:56:45;;;;;;;4.03;1.23;;;;;;;;;;5068799;28;20013;-74
2022/01/03 02:59:15;;;;;;;2.17;0.68;;;;;;;;;;5060825;28;20036;-74
2022/01/03 03:01:45;;;;;;;2.28;0.40;;;;;;;;;;5060497;28;20036;-74
2022/01/03 03:04:11;;;;;;;3.70;0.93;;;;;;;;;;5066647;28;20039;-74
2022/01/03 03:06:37;;;;;;;0.77;0.43;;;;;;;;;;5069151;28;20033;-74
2022/01/03 03:09:05;;;;;;;5.57;0.75;;;;;;;;;;5059629;28;20021;-71
2022/01/03 03:11:35;;;;;;;2.38;1.10;;;;;;;;;;5062183;28;20013;-74
2022/01/03 03:14:02;;;;;;;3.25;1.05;;;;;;;;;;5066833;28;20094;-74
2022/01/03 03:16:28;;;;;;;1.95;0.57;;;;;;;;;;5036745;28;20032;-73
2022/01/03 03:18:54;;;;;;;1.42;0.60;;;;;;;;;;5071128;28;20024;-73
2022/01/03 03:21:20;;;;;;;1.10;0.50;;;;;;;;;;5068384;28;20051;-74
2022/01/03 03:23:46;;;;;;;3.53;0.90;;;;;;;;;;5041300;28;20021;-74
2022/01/03 03:26:12;;;;;;;2.28;0.55;;;;;;;;;;5068750;28;20027;-74
2022/01/03 03:28:38;;;;;;;1.92;0.80;;;;;;;;;;5055867;28;20020;-74
2022/01/03 03:31:05;;;;;;;1.67;0.90;;;;;;;;;;5072686;28;20501;-76
2022/01/03 03:33:32;;;;;;;3.63;0.98;;;;;;;;;;5072343;28;20359;-74
2022/01/03 03:35:59;;;;;;;2.08;0.82;;;;;;;;;;5058054;28;20094;-75
2022/01/03 03:38:25;;;;;;;1.92;0.47;;;;;;;;;;5067936;28;20028;-76
2022/01/03 03:40:55;;;;;;;0.75;0.40;;;;;;;;;;5037745;28;20047;-74
2022/01/03 03:43:21;;;;;;;2.50;0.95;;;;;;;;;;5060158;28;20123;-74
2022/01/03 03:45:51;;;;;;;2.42;0.80;;;;;;;;;;5062890;28;20036;-75
2022/01/03 03:48:20;;;;;;;6.20;0.95;;;;;;;;;;5051851;28;20028;-73
2022/01/03 03:50:46;;;;;;;2.10;0.75;;;;;;;;;;5047831;28;20028;-74
2022/01/03 03:53:13;;;;;;;0.75;0.50;;;;;;;;;;5057340;28;20445;-74
2022/01/03 03:55:39;;;;;;;1.73;0.68;;;;;;;;;;5059794;28;20037;-72
2022/01/03 03:58:05;;;;;;;3.22;1.13;;;;;;;;;;5065672;28;20029;-74
2022/01/03 04:00:32;;;;;;;5.35;1.20;;;;;;;;;;5052218;28;20471;-74
2022/01/03 04:02:58;;;;;;;1.88;0.98;;;;;;;;;;5057576;28;20483;-75
2022/01/03 04:05:24;;;;;;;3.53;0.50;;;;;;;;;;5061702;28;20036;-74
2022/01/03 04:07:50;;;;;;;2.47;0.80;;;;;;;;;;5064442;28;20087;-74
2022/01/03 04:10:16;;;;;;;3.17;0.70;;;;;;;;;;5054931;28;20121;-72
2022/01/03 04:12:43;;;;;;;4.07;0.90;;;;;;;;;;5064584;28;20020;-73
2022/01/03 04:15:09;;;;;;;1.48;0.63;;;;;;;;;;5045818;28;20029;-74
2022/01/03 04:17:35;;;;;;;0.50;0.40;;;;;;;;;;5044638;28;20401;-73
2022/01/03 04:20:01;;;;;;;2.63;1.00;;;;;;;;;;5040907;28;20593;-73
2022/01/03 04:22:27;;;;;;;2.03;0.90;;;;;;;;;;5035683;28;20029;-73
2022/01/03 04:24:54;;;;;;;0.60;0.28;;;;;;;;;;5064937;28;20027;-73
2022/01/03 04:27:20;;;;;;;1.67;0.65;;;;;;;;;;5060429;28;20056;-73
2022/01/03 04:29:47;;;;;;;2.33;1.13;;;;;;;;;;5057971;28;20049;-73
2022/01/03 04:32:13;;;;;;;2.35;0.68;;;;;;;;;;5067449;28;20029;-74
2022/01/03 04:34:39;;;;;;;2.83;0.60;;;;;;;;;;5054103;28;20020;-74
2022/01/03 04:37:05;;;;;;;2.92;0.82;;;;;;;;;;5064174;28;20388;-74
2022/01/03 04:39:31;;;;;;;2.42;0.68;;;;;;;;;;5061383;28;20111;-74
2022/01/03 04:41:57;;;;;;;1.77;0.63;;;;;;;;;;5056103;28;20025;-74
2022/01/03 04:44:23;;;;;;;2.10;0.63;;;;;;;;;;5064635;22;20120;-76
2022/01/03 04:46:49;;;;;;;2.08;1.35;;;;;;;;;;5050307;28;20025;-76
2022/01/03 04:49:15;;;;;;;2.45;1.20;;;;;;;;;;5051000;28;20021;-73
2022/01/03 04:51:41;;;;;;;2.40;1.02;;;;;;;;;;5050642;28;20296;-74
2022/01/03 04:54:07;;;;;;;3.05;0.93;;;;;;;;;;5031782;28;20037;-75
2022/01/03 04:56:36;;;;;;;1.83;0.60;;;;;;;;;;5032607;28;20124;-74
2022/01/03 04:59:02;;;;;;;1.02;0.57;;;;;;;;;;5046636;28;20033;-74
2022/01/03 05:01:28;;;;;;;2.15;0.98;;;;;;;;;;5050370;28;20425;-74
2022/01/03 05:03:54;;;;;;;1.67;0.55;;;;;;;;;;5031033;28;20084;-74
2022/01/03 05:06:20;;;;;;;2.72;0.80;;;;;;;;;;5049777;28;20164;-74
2022/01/03 05:08:46;;;;;;;3.30;1.15;;;;;;;;;;5050664;28;20021;-75
2022/01/03 05:11:12;;;;;;;2.80;0.75;;;;;;;;;;5052403;28;20025;-76
2022/01/03 05:13:39;;;;;;;2.25;0.60;;;;;;;;;;5052833;28;20086;-75
2022/01/03 05:16:05;;;;;;;3.22;0.80;;;;;;;;;;5037233;28;20025;-75
2022/01/03 05:18:31;;;;;;;3.45;0.90;;;;;;;;;;5059101;28;20381;-76
2022/01/03 05:20:57;;;;;;;4.55;0.80;;;;;;;;;;5058354;28;20055;-76
2022/01/03 05:23:23;;;;;;;1.33;0.73;;;;;;;;;;5055900;28;20055;-76
2022/01/03 05:25:50;;;;;;;3.45;0.90;;;;;;;;;;5032299;28;20116;-76
2022/01/03 05:28:16;;;;;;;4.40;0.82;;;;;;;;;;5050405;28;20025;-76
2022/01/03 05:30:42;;;;;;;3.33;0.73;;;;;;;;;;5052222;28;20017;-76
2022/01/03 05:33:08;;;;;;;1.98;1.00;;;;;;;;;;5050435;28;20473;-76
2022/01/03 05:35:34;;;;;;;3.60;0.90;;;;;;;;;;5052314;28;20025;-76
2022/01/03 05:38:00;;;;;;;6.65;1.30;;;;;;;;;;5052869;28;20041;-76
2022/01/03 05:40:26;;;;;;;3.47;1.10;;;;;;;;;;5056311;28;20060;-76
2022/01/03 05:42:53;;;;;;;3.10;1.10;;;;;;;;;;5055412;28;20025;-74
2022/01/03 05:45:19;;;;;;;4.07;0.85;;;;;;;;;;5053716;28;20037;-76
2022/01/03 05:47:47;;;;;;;2.70;1.38;;;;;;;;;;5050013;28;20104;-76
2022/01/03 05:50:16;;;;;;;4.47;1.50;;;;;;;;;;5050667;28;20025;-76
2022/01/03 05:52:42;;;;;;;10.13;1.25;;;;;;;;;;5034056;28;20017;-76
2022/01/03 05:55:08;;;;;;;2.67;0.90;;;;;;;;;;5053642;28;20025;-76
2022/01/03 05:57:35;;;;;;;4.40;1.35;;;;;;;;;;5035680;28;20068;-75
2022/01/03 06:00:03;;;;;;;3.25;1.05;;;;;;;;;;5053395;28;20040;-75
2022/01/03 06:02:34;;;;;;;4.18;1.63;;;;;;;;;;5053401;28;20025;-76
2022/01/03 06:05:02;;;;;;;4.80;1.10;;;;;;;;;;5035080;28;20029;-75
2022/01/03 06:07:28;;;;;;;4.22;1.00;;;;;;;;;;5053866;28;20516;-76
2022/01/03 06:09:54;;;;;;;4.53;1.10;;;;;;;;;;5053649;28;20116;-76
2022/01/03 06:12:20;;;;;;;5.28;1.70;;;;;;;;;;5053032;28;20029;-76
2022/01/03 06:14:47;;;;;;;8.48;1.70;;;;;;;;;;5053047;28;20021;-76
2022/01/03 06:17:14;;;;;;;5.50;1.40;;;;;;;;;;5035594;28;20025;-76
2022/01/03 06:19:40;;;;;;;8.23;1.90;;;;;;;;;;5053603;28;20604;-75
2022/01/03 06:22:08;;;;;;;6.55;1.75;;;;;;;;;;5035545;28;20162;-76
2022/01/03 06:24:34;;;;;;;10.88;1.65;;;;;;;;;;5052727;28;20451;-75
2022/01/03 06:27:00;;;;;;;9.77;1.88;;;;;;;;;;5035531;28;20063;-75
2022/01/03 06:29:26;;;;;;;7.38;1.40;;;;;;;;;;5053701;28;20390;-76
2022/01/03 06:31:52;;;;;;;10.10;2.10;;;;;;;;;;5053331;28;20025;-76
2022/01/03 06:34:19;;;;;;;3.30;1.00;;;;;;;;;;5034298;28;20028;-75
2022/01/03 06:36:45;;;;;;;4.38;1.40;;;;;;;;;;5053308;28;20453;-75
2022/01/03 06:39:12;;;;;;;2.58;1.00;;;;;;;;;;5052928;28;20025;-75
2022/01/03 06:41:38;;;;;;;3.63;1.67;;;;;;;;;;5035270;28;20055;-76
2022/01/03 06:44:04;;;;;;;6.40;1.20;;;;;;;;;;5052202;28;20387;-75
2022/01/03 06:46:30;;;;;;;9.27;2.30;;;;;;;;;;5053511;28;20465;-75
2022/01/03 06:48:56;;;;;;;4.30;1.90;;;;;;;;;;5052998;28;20071;-75
2022/01/03 06:51:22;;;;;;;5.30;1.60;;;;;;;;;;5052875;28;20436;-75
2022/01/03 06:53:48;;;;;;;7.10;1.42;;;;;;;;;;5051568;28;20032;-76
2022/01/03 06:56:14;;;;;;;4.13;1.40;;;;;;;;;;5053284;28;20351;-77
2022/01/03 06:58:42;;;;;;;4.80;1.27;;;;;;;;;;5053189;28;20025;-75
2022/01/03 07:01:09;;;;;;;5.97;1.40;;;;;;;;;;5034748;28;20017;-75
2022/01/03 07:03:35;;;;;;;5.22;1.17;;;;;;;;;;5052168;28;20033;-74
2022/01/03 07:06:01;;;;;;;4.15;1.70;;;;;;;;;;5034473;28;20033;-74
2022/01/03 07:08:27;;;;;;;5.78;1.40;;;;;;;;;;5052499;28;20017;-75
2022/01/03 07:10:54;;;;;;;3.92;1.30;;;;;;;;;;5034904;28;20086;-73
2022/01/03 07:13:20;;;;;;;7.63;2.63;;;;;;;;;;5051876;28;20067;-74
2022/01/03 07:21:16;;;;;;;5.25;1.58;;;;;;;;;;5052502;28;20102;-75
2022/01/03 07:23:42;;;;;;;10.73;1.30;;;;;;;;;;5051515;28;20025;-74
2022/01/03 07:26:08;;;;;;;6.70;1.48;;;;;;;;;;5052682;28;20036;-73
2022/01/03 07:28:35;;;;;;;8.07;1.23;;;;;;;;;;5052453;28;20027;-74
2022/01/03 07:31:01;;;;;;;7.22;1.30;;;;;;;;;;5052529;28;20113;-74
2022/01/03 07:33:27;;;;;;;11.05;2.20;;;;;;;;;;5051532;28;20030;-74
2022/01/03 07:35:53;;;;;;;3.83;1.10;;;;;;;;;;5051789;28;20021;-74
2022/01/03 07:38:19;;;;;;;4.95;1.15;;;;;;;;;;5053052;28;20487;-75
2022/01/03 07:40:45;;;;;;;4.15;1.30;;;;;;;;;;5034900;28;20473;-75
2022/01/03 07:43:11;;;;;;;3.72;1.13;;;;;;;;;;5051684;28;20117;-73
2022/01/03 07:45:37;;;;;;;4.97;0.90;;;;;;;;;;5052959;28;20029;-75
2022/01/03 07:48:03;;;;;;;4.30;1.27;;;;;;;;;;5052702;28;20024;-75
2022/01/03 07:50:29;;;;;;;5.13;1.73;;;;;;;;;;5053094;28;20040;-74
2022/01/03 07:52:58;;;;;;;4.75;1.30;;;;;;;;;;5052376;28;20024;-75
2022/01/03 07:55:24;;;;;;;4.18;1.30;;;;;;;;;;5051834;28;20024;-74
2022/01/03 07:57:50;;;;;;;5.22;1.85;;;;;;;;;;5051882;28;20044;-74
2022/01/03 08:00:17;;;;;;;3.55;1.10;;;;;;;;;;5052216;28;20033;-74
2022/01/03 08:02:43;;;;;;;6.75;1.33;;;;;;;;;;5051173;28;20040;-72
2022/01/03 08:05:12;;;;;;;4.63;1.73;;;;;;;;;;5051678;28;20029;-74
2022/01/03 08:07:38;;;;;;;6.93;1.23;;;;;;;;;;5052130;28;20033;-74
2022/01/03 08:10:05;;;;;;;6.63;1.83;;;;;;;;;;5051512;28;20025;-74
2022/01/03 08:12:31;;;;;;;7.18;1.50;;;;;;;;;;5051608;28;20508;-72
2022/01/03 08:14:56;;;;;;;8.18;1.92;;;;;;;;;;5029818;28;20466;-73
2022/01/03 08:17:22;;;;;;;4.18;1.33;;;;;;;;;;5030647;28;20025;-73
2022/01/03 08:19:48;;;;;;;6.25;1.40;;;;;;;;;;5046326;28;20052;-72
2022/01/03 08:22:14;;;;;;;7.13;1.40;;;;;;;;;;5051473;28;20394;-74
2022/01/03 08:24:40;;;;;;;118.70;51.25;;;;;;;;;;5051838;28;20096;-72
2022/01/03 08:27:07;;;;;;;152.38;66.53;;;;;;;;;;5051948;28;20515;-73
2022/01/03 08:29:34;;;;;;;107.32;43.53;;;;;;;;;;5051814;28;20020;-74
2022/01/03 08:32:00;;;;;;;28.35;9.15;;;;;;;;;;5051023;28;20032;-72
2022/01/03 08:34:26;;;;;;;24.02;9.20;;;;;;;;;;5049100;28;20021;-74
2022/01/03 08:36:52;;;;;;;31.27;13.02;;;;;;;;;;5051488;28;20021;-75
2022/01/03 08:39:18;;;;;;;40.65;14.45;;;;;;;;;;5051304;28;20470;-75
2022/01/03 08:41:44;;;;;;;52.78;19.90;;;;;;;;;;5051368;28;20033;-73
2022/01/03 08:44:10;;;;;;;22.13;9.80;;;;;;;;;;5049945;28;20049;-75
2022/01/03 08:46:36;;;;;;;41.58;15.63;;;;;;;;;;5051616;28;20037;-75
2022/01/03 08:49:02;;;;;;;33.80;13.55;;;;;;;;;;5050943;28;20236;-74
2022/01/03 08:51:28;;;;;;;42.08;14.10;;;;;;;;;;5033363;28;20470;-74
2022/01/03 08:53:55;;;;;;;15.90;5.85;;;;;;;;;;5050194;28;20013;-74
2022/01/03 08:56:21;;;;;;;30.67;9.80;;;;;;;;;;5050797;28;20461;-75
2022/01/03 08:58:47;;;;;;;27.13;10.00;;;;;;;;;;5050977;28;20478;-75
2022/01/03 09:01:14;;;;;;;21.48;6.25;;;;;;;;;;5050872;28;20039;-74
2022/01/03 09:03:40;;;;;;;26.58;8.80;;;;;;;;;;5050489;28;20393;-73
2022/01/03 09:06:06;;;;;;;28.20;12.82;;;;;;;;;;5051020;28;20463;-75
2022/01/03 09:08:32;;;;;;;14.80;5.80;;;;;;;;;;5051068;28;20120;-74
2022/01/03 09:10:58;;;;;;;28.65;11.13;;;;;;;;;;5048839;28;20530;-75
2022/01/03 09:13:24;;;;;;;14.43;5.95;;;;;;;;;;5049925;28;20021;-75
2022/01/03 09:15:51;;;;;;;18.85;6.45;;;;;;;;;;5050874;28;20017;-75
2022/01/03 09:18:18;;;;;;;18.27;5.82;;;;;;;;;;5049957;28;20100;-74
2022/01/03 09:20:44;;;;;;;28.08;11.02;;;;;;;;;;5051963;28;20052;-74
2022/01/03 09:23:23;;;;;;;23.13;8.45;;;;;;;;;;5051294;28;20033;-74
2022/01/03 09:28:51;;;;;;;7.25;2.92;;;;;;;;;;5057115;28;20036;-77
2022/01/03 09:31:18;;;;;;;20.63;8.25;;;;;;;;;;5057324;28;20474;-76
2022/01/03 09:33:44;;;;;;;23.70;8.23;;;;;;;;;;5057530;28;20065;-76
2022/01/03 09:36:10;;;;;;;11.02;3.90;;;;;;;;;;5057723;28;20099;-76
2022/01/03 09:38:37;;;;;;;15.27;6.63;;;;;;;;;;5057662;28;20051;-77
2022/01/03 09:41:04;;;;;;;9.88;3.17;;;;;;;;;;5057171;28;20021;-76
2022/01/03 09:43:34;;;;;;;14.10;5.60;;;;;;;;;;5056344;28;20469;-77
2022/01/03 09:46:02;;;;;;;9.70;3.40;;;;;;;;;;5056941;28;20505;-76
2022/01/03 09:48:28;;;;;;;10.32;3.08;;;;;;;;;;5039073;28;20462;-76
2022/01/03 09:50:56;;;;;;;14.85;6.15;;;;;;;;;;5039329;28;20021;-77
2022/01/03 09:53:22;;;;;;;6.93;2.83;;;;;;;;;;5057325;28;20025;-75
2022/01/03 09:55:49;;;;;;;10.80;4.05;;;;;;;;;;5056502;28;20067;-74
2022/01/03 09:58:15;;;;;;;8.60;2.88;;;;;;;;;;5037549;28;20021;-74
2022/01/03 10:00:41;;;;;;;12.75;4.60;;;;;;;;;;5055995;28;20453;-74
2022/01/03 10:03:07;;;;;;;8.52;2.42;;;;;;;;;;5055605;28;20033;-73
2022/01/03 10:05:33;;;;;;;11.02;4.05;;;;;;;;;;5055898;28;20025;-74
2022/01/03 10:07:59;;;;;;;12.57;5.20;;;;;;;;;;5057104;28;20020;-74
2022/01/03 10:10:28;;;;;;;13.48;5.88;;;;;;;;;;5038493;28;20608;-75
2022/01/03 10:12:54;;;;;;;14.10;4.05;;;;;;;;;;5055650;28;20013;-75
2022/01/03 10:15:20;;;;;;;6.97;2.38;;;;;;;;;;5039646;28;20028;-73
2022/01/03 10:17:47;;;;;;;14.07;5.00;;;;;;;;;;5058232;28;20037;-74
2022/01/03 10:20:13;;;;;;;12.88;2.60;;;;;;;;;;5057465;28;20512;-74
2022/01/03 10:22:41;;;;;;;12.32;3.92;;;;;;;;;;5057668;28;20372;-73
2022/01/03 10:25:12;;;;;;;7.53;2.85;;;;;;;;;;5039141;28;20035;-74
2022/01/03 10:27:53;;;;;;;8.10;3.15;;;;;;;;;;5057548;28;20020;-74
2022/01/03 10:30:29;;;;;;;10.60;3.47;;;;;;;;;;5057236;28;20031;-74
2022/01/03 10:32:55;;;;;;;6.72;2.13;;;;;;;;;;5038760;28;20109;-74
2022/01/03 10:35:21;;;;;;;13.68;3.00;;;;;;;;;;5057383;28;20528;-74
2022/01/03 10:37:48;;;;;;;12.52;3.20;;;;;;;;;;5057599;28;20051;-74
2022/01/03 10:40:17;;;;;;;9.05;3.10;;;;;;;;;;5053713;28;20021;-74
2022/01/03 10:42:43;;;;;;;9.60;3.00;;;;;;;;;;5053836;28;20036;-74
2022/01/03 10:45:09;;;;;;;12.57;2.58;;;;;;;;;;5025222;22;20052;-73
2022/01/03 10:47:36;;;;;;;15.10;3.85;;;;;;;;;;4992429;28;20113;-74
2022/01/03 10:50:19;;;;;;;9.25;2.80;;;;;;;;;;4994186;28;20034;-73
2022/01/03 10:52:46;;;;;;;11.27;3.33;;;;;;;;;;4991869;28;20057;-72
2022/01/03 10:55:15;;;;;;;8.45;2.10;;;;;;;;;;4993556;28;20034;-74
2022/01/03 10:57:49;;;;;;;9.35;2.13;;;;;;;;;;5005360;28;20044;-74
2022/01/03 11:00:25;;;;;;;11.30;3.65;;;;;;;;;;4994554;28;20113;-74
2022/01/03 11:03:08;;;;;;;10.02;3.30;;;;;;;;;;5010866;28;20398;-74
2022/01/03 11:05:37;;;;;;;17.05;4.80;;;;;;;;;;5011111;28;20455;-74
2022/01/03 11:10:45;;;;;;;12.13;3.13;;;;;;;;;;5011157;28;20600;-74
2022/01/03 11:13:11;;;;;;;9.35;2.53;;;;;;;;;;5010707;28;20022;-74
2022/01/03 11:15:38;;;;;;;9.70;2.60;;;;;;;;;;4994116;28;20048;-75
2022/01/03 11:18:24;;;;;;;8.60;2.50;;;;;;;;;;5013226;28;20500;-75
2022/01/03 11:21:00;;;;;;;7.13;2.25;;;;;;;;;;5015136;28;20483;-74
2022/01/03 11:23:26;;;;;;;6.30;2.15;;;;;;;;;;5013926;28;20036;-73
2022/01/03 11:25:54;;;;;;;6.55;1.75;;;;;;;;;;5032434;28;20029;-73
2022/01/03 11:28:20;;;;;;;5.22;1.55;;;;;;;;;;5032494;28;20491;-73
2022/01/03 11:30:48;;;;;;;3.95;1.85;;;;;;;;;;5031672;28;20381;-71
2022/01/03 11:33:15;;;;;;;10.73;1.98;;;;;;;;;;5012526;28;20021;-74
2022/01/03 11:35:46;;;;;;;8.43;2.10;;;;;;;;;;5012973;28;20052;-75
2022/01/03 11:38:12;;;;;;;8.98;1.70;;;;;;;;;;5030671;28;20022;-74
2022/01/03 11:40:38;;;;;;;8.43;2.50;;;;;;;;;;5013158;28;20044;-73
2022/01/03 11:43:04;;;;;;;7.82;3.13;;;;;;;;;;5030148;28;20048;-73
2022/01/03 11:45:31;;;;;;;7.07;2.50;;;;;;;;;;5030426;28;20033;-73
2022/01/03 11:47:57;;;;;;;5.68;1.52;;;;;;;;;;5013196;28;20029;-74
2022/01/03 11:50:23;;;;;;;6.90;2.28;;;;;;;;;;5008868;28;20123;-74
2022/01/03 11:52:49;;;;;;;6.63;1.75;;;;;;;;;;5004106;28;20026;-72
2022/01/03 11:55:16;;;;;;;5.85;1.70;;;;;;;;;;5012016;28;20483;-74
2022/01/03 11:58:06;;;;;;;6.63;1.73;;;;;;;;;;5015130;28;20021;-74
2022/01/03 12:06:02;;;;;;;4.63;1.55;;;;;;;;;;5012085;28;20048;-74
2022/01/03 12:08:30;;;;;;;9.23;2.08;;;;;;;;;;5011835;28;20018;-75
2022/01/03 12:11:00;;;;;;;5.75;1.50;;;;;;;;;;5012366;28;20037;-73
2022/01/03 12:13:45;;;;;;;6.17;1.67;;;;;;;;;;5011089;28;20030;-72
2022/01/03 12:16:12;;;;;;;7.95;2.08;;;;;;;;;;5011802;28;20104;-74
2022/01/03 12:18:38;;;;;;;6.75;1.70;;;;;;;;;;5019394;28;20562;-74
2022/01/03 12:21:04;;;;;;;8.15;1.40;;;;;;;;;;5011740;28;20079;-75
2022/01/03 12:23:36;;;;;;;8.63;2.03;;;;;;;;;;4993166;28;20476;-74
2022/01/03 12:26:17;;;;;;;3.58;1.35;;;;;;;;;;5011663;28;20076;-73
2022/01/03 12:29:02;;;;;;;4.70;1.40;;;;;;;;;;5011446;28;20036;-75
2022/01/03 12:31:28;;;;;;;5.05;1.52;;;;;;;;;;4993898;28;20035;-74
2022/01/03 12:34:12;;;;;;;7.97;1.92;;;;;;;;;;5010651;28;20022;-74
2022/01/03 12:36:38;;;;;;;7.65;1.58;;;;;;;;;;5011776;28;20419;-73
2022/01/03 12:39:06;;;;;;;10.48;1.83;;;;;;;;;;5011475;28;20030;-74
2022/01/03 12:41:43;;;;;;;5.03;1.40;;;;;;;;;;5011412;28;20395;-73
2022/01/03 12:44:10;;;;;;;6.28;1.80;;;;;;;;;;4992763;28;20030;-73
2022/01/03 12:46:36;;;;;;;4.20;1.48;;;;;;;;;;5011007;28;20040;-73
2022/01/03 12:49:21;;;;;;;6.65;1.40;;;;;;;;;;5010978;28;20026;-75
2022/01/03 12:51:47;;;;;;;6.85;1.90;;;;;;;;;;4993423;28;20030;-74
2022/01/03 12:54:13;;;;;;;4.72;1.55;;;;;;;;;;5010399;28;20018;-74
2022/01/03 12:56:39;;;;;;;5.78;1.50;;;;;;;;;;5010873;28;20099;-73
2022/01/03 12:59:13;;;;;;;5.28;1.10;;;;;;;;;;5010911;28;20120;-74
2022/01/03 13:01:39;;;;;;;6.47;1.88;;;;;;;;;;5010839;28;20451;-74
2022/01/03 13:04:24;;;;;;;8.75;2.00;;;;;;;;;;5010402;28;20026;-74
2022/01/03 13:06:50;;;;;;;7.40;1.20;;;;;;;;;;4993470;28;20044;-74
2022/01/03 13:09:17;;;;;;;3.72;1.13;;;;;;;;;;4992728;28;20037;-75
2022/01/03 13:11:59;;;;;;;6.97;1.48;;;;;;;;;;4993278;28;20033;-74
2022/01/03 13:14:26;;;;;;;6.25;2.00;;;;;;;;;;5010022;28;20057;-74
2022/01/03 13:16:56;;;;;;;5.07;1.40;;;;;;;;;;5010595;28;20080;-75
2022/01/03 13:19:25;;;;;;;4.00;1.08;;;;;;;;;;4993823;28;20071;-74
2022/01/03 13:21:53;;;;;;;2.65;1.08;;;;;;;;;;5010609;28;20030;-74
2022/01/03 13:24:39;;;;;;;5.97;1.48;;;;;;;;;;5010233;28;20052;-74
2022/01/03 13:27:12;;;;;;;6.47;1.38;;;;;;;;;;5010446;28;20049;-74
2022/01/03 13:29:41;;;;;;;5.45;1.40;;;;;;;;;;5010560;28;20026;-74
2022/01/03 13:32:07;;;;;;;5.72;1.75;;;;;;;;;;4993382;28;20656;-73
2022/01/03 13:34:41;;;;;;;7.63;0.82;;;;;;;;;;4992452;28;20030;-74
2022/01/03 13:37:08;;;;;;;7.47;1.60;;;;;;;;;;4992932;28;20042;-72
2022/01/03 13:39:37;;;;;;;10.43;2.10;;;;;;;;;;5010817;28;20026;-73
2022/01/03 13:42:11;;;;;;;4.80;1.10;;;;;;;;;;5017918;28;20108;-73
2022/01/03 13:50:11;;;;;;;8.55;1.40;;;;;;;;;;5029087;28;20036;-72
2022/01/03 13:52:39;;;;;;;3.83;1.50;;;;;;;;;;5028531;28;20045;-74
2022/01/03 13:55:14;;;;;;;6.15;1.23;;;;;;;;;;4989233;28;20030;-73
2022/01/03 13:57:40;;;;;;;3.47;1.13;;;;;;;;;;4989448;28;20022;-72
2022/01/03 14:00:07;;;;;;;7.28;1.38;;;;;;;;;;4987874;28;20026;-73
2022/01/03 14:02:35;;;;;;;5.95;2.05;;;;;;;;;;4989014;28;20022;-74
2022/01/03 14:05:01;;;;;;;7.38;1.33;;;;;;;;;;4989545;28;20324;-74
2022/01/03 14:07:27;;;;;;;6.18;1.33;;;;;;;;;;4990682;28;20030;-73
2022/01/03 14:10:00;;;;;;;7.60;1.55;;;;;;;;;;4990827;28;20086;-73
2022/01/03 14:12:28;;;;;;;3.53;1.77;;;;;;;;;;4989788;28;20018;-75
2022/01/03 14:14:55;;;;;;;5.55;1.73;;;;;;;;;;4992024;28;20061;-74
2022/01/03 14:17:22;;;;;;;7.35;1.50;;;;;;;;;;4994843;28;20041;-74
2022/01/03 14:19:57;;;;;;;7.57;1.60;;;;;;;;;;4995040;28;20033;-72
2022/01/03 14:22:23;;;;;;;6.75;2.17;;;;;;;;;;5014145;28;20029;-74
2022/01/03 14:25:02;;;;;;;7.90;2.25;;;;;;;;;;5013260;28;20384;-76
2022/01/03 14:27:38;;;;;;;4.70;1.50;;;;;;;;;;4994995;28;20436;-73
2022/01/03 14:30:22;;;;;;;8.38;1.52;;;;;;;;;;5013119;28;20060;-74
2022/01/03 14:32:50;;;;;;;6.50;1.63;;;;;;;;;;5012946;28;20043;-71
2022/01/03 14:35:28;;;;;;;6.43;1.90;;;;;;;;;;4995737;28;20030;-74
2022/01/03 14:38:02;;;;;;;9.57;2.05;;;;;;;;;;5013425;28;20122;-74
2022/01/03 14:40:47;;;;;;;4.85;1.40;;;;;;;;;;4995725;28;20026;-74
2022/01/03 14:43:19;;;;;;;6.25;1.83;;;;;;;;;;5012690;28;20109;-74
2022/01/03 14:45:45;;;;;;;4.63;1.52;;;;;;;;;;4994530;28;20082;-74
2022/01/03 14:48:11;;;;;;;8.20;1.83;;;;;;;;;;5011773;28;20621;-73
2022/01/03 14:50:38;;;;;;;5.78;1.42;;;;;;;;;;5012759;28;20030;-74
2022/01/03 14:53:07;;;;;;;5.47;1.40;;;;;;;;;;4993658;28;20041;-73
2022/01/03 14:55:37;;;;;;;4.93;1.90;;;;;;;;;;5010466;28;20026;-73
2022/01/03 14:58:04;;;;;;;6.88;2.10;;;;;;;;;;5008848;28;20055;-73
2022/01/03 15:00:31;;;;;;;9.00;1.95;;;;;;;;;;5011329;28;20453;-73
2022/01/03 15:02:57;;;;;;;3.75;1.70;;;;;;;;;;5010895;28;20037;-71
2022/01/03 15:05:23;;;;;;;9.65;1.40;;;;;;;;;;5011356;28;20396;-73
2022/01/03 15:07:49;;;;;;;7.35;1.83;;;;;;;;;;5012035;28;20022;-73
2022/01/03 15:10:17;;;;;;;4.35;1.35;;;;;;;;;;5012794;28;20030;-74